sensor_id;sensor_type;location;lat;lon;timestamp;pressure;altitude;pressure_sealevel;temperature;humidity
31331;BME280;34067;39.548;-76.088;2022-08-19T00:00:01;101316.23;;;30.19;32.15
31331;BME280;34067;39.548;-76.088;2022-08-19T00:02:29;101320.64;;;29.92;33.23
31331;BME280;34067;39.548;-76.088;2022-08-19T00:04:56;101326.39;;;29.72;34.06
31331;BME280;34067;39.548;-76.088;2022-08-19T00:07:24;101327.49;;;30.04;33.49
31331;BME280;34067;39.548;-76.088;2022-08-19T00:09:52;101329.46;;;30.14;33.65
31331;BME280;34067;39.548;-76.088;2022-08-19T00:12:20;101331.52;;;29.86;33.89
31331;BME280;34067;39.548;-76.088;2022-08-19T00:14:48;101330.98;;;29.30;34.42
31331;BME280;34067;39.548;-76.088;2022-08-19T00:17:16;101335.38;;;29.69;34.35
31331;BME280;34067;39.548;-76.088;2022-08-19T00:19:43;101343.35;;;29.63;34.67
31331;BME280;34067;39.548;-76.088;2022-08-19T00:22:11;101346.58;;;29.64;34.52
31331;BME280;34067;39.548;-76.088;2022-08-19T00:24:39;101346.15;;;29.41;34.60
31331;BME280;34067;39.548;-76.088;2022-08-19T00:27:06;101345.47;;;29.17;34.70
31331;BME280;34067;39.548;-76.088;2022-08-19T00:29:34;101344.96;;;28.99;35.35
31331;BME280;34067;39.548;-76.088;2022-08-19T00:32:02;101343.84;;;28.66;35.01
31331;BME280;34067;39.548;-76.088;2022-08-19T00:34:31;101346.49;;;28.52;35.18
31331;BME280;34067;39.548;-76.088;2022-08-19T00:36:59;101346.69;;;29.19;34.85
31331;BME280;34067;39.548;-76.088;2022-08-19T00:39:27;101352.02;;;27.78;35.77
31331;BME280;34067;39.548;-76.088;2022-08-19T00:41:56;101353.74;;;28.66;35.54
31331;BME280;34067;39.548;-76.088;2022-08-19T00:44:26;101356.10;;;28.36;36.89
31331;BME280;34067;39.548;-76.088;2022-08-19T00:46:56;101359.32;;;28.19;36.15
31331;BME280;34067;39.548;-76.088;2022-08-19T00:49:29;101362.90;;;27.72;36.75
31331;BME280;34067;39.548;-76.088;2022-08-19T00:52:02;101366.74;;;26.90;37.15
31331;BME280;34067;39.548;-76.088;2022-08-19T00:54:32;101367.48;;;27.86;37.35
31331;BME280;34067;39.548;-76.088;2022-08-19T00:57:03;101372.24;;;27.83;36.88
31331;BME280;34067;39.548;-76.088;2022-08-19T00:59:34;101375.02;;;28.38;36.91
31331;BME280;34067;39.548;-76.088;2022-08-19T01:02:04;101376.46;;;27.74;37.44
31331;BME280;34067;39.548;-76.088;2022-08-19T01:04:32;101378.78;;;27.84;37.57
31331;BME280;34067;39.548;-76.088;2022-08-19T01:07:00;101380.33;;;28.01;36.80
31331;BME280;34067;39.548;-76.088;2022-08-19T01:09:30;101386.19;;;28.22;37.86
31331;BME280;34067;39.548;-76.088;2022-08-19T01:11:58;101392.20;;;27.70;37.66
31331;BME280;34067;39.548;-76.088;2022-08-19T01:14:26;101401.71;;;27.39;37.28
31331;BME280;34067;39.548;-76.088;2022-08-19T01:16:55;101404.92;;;27.26;37.44
31331;BME280;34067;39.548;-76.088;2022-08-19T01:19:28;101407.18;;;27.75;39.01
31331;BME280;34067;39.548;-76.088;2022-08-19T01:22:03;101407.78;;;27.16;40.15
31331;BME280;34067;39.548;-76.088;2022-08-19T01:24:33;101410.73;;;27.71;39.73
31331;BME280;34067;39.548;-76.088;2022-08-19T01:27:04;101415.39;;;27.09;40.12
31331;BME280;34067;39.548;-76.088;2022-08-19T01:29:32;101419.48;;;27.44;39.37
31331;BME280;34067;39.548;-76.088;2022-08-19T01:32:01;101424.65;;;27.23;40.41
31331;BME280;34067;39.548;-76.088;2022-08-19T01:34:30;101428.49;;;26.71;40.44
31331;BME280;34067;39.548;-76.088;2022-08-19T01:36:58;101431.38;;;27.23;39.22
31331;BME280;34067;39.548;-76.088;2022-08-19T01:39:28;101430.48;;;27.25;39.55
31331;BME280;34067;39.548;-76.088;2022-08-19T01:41:57;101434.63;;;26.93;40.73
31331;BME280;34067;39.548;-76.088;2022-08-19T01:44:24;101432.10;;;27.10;40.54
31331;BME280;34067;39.548;-76.088;2022-08-19T01:46:53;101434.57;;;27.00;40.20
31331;BME280;34067;39.548;-76.088;2022-08-19T01:49:22;101440.92;;;27.27;40.12
31331;BME280;34067;39.548;-76.088;2022-08-19T01:51:51;101444.52;;;27.15;40.03
31331;BME280;34067;39.548;-76.088;2022-08-19T01:54:21;101448.75;;;26.93;39.65
31331;BME280;34067;39.548;-76.088;2022-08-19T01:56:50;101451.88;;;26.54;41.39
31331;BME280;34067;39.548;-76.088;2022-08-19T01:59:20;101453.55;;;26.34;42.55
31331;BME280;34067;39.548;-76.088;2022-08-19T02:01:49;101452.66;;;25.97;42.63
31331;BME280;34067;39.548;-76.088;2022-08-19T02:04:17;101449.47;;;26.50;42.27
31331;BME280;34067;39.548;-76.088;2022-08-19T02:06:45;101452.91;;;26.42;42.83
31331;BME280;34067;39.548;-76.088;2022-08-19T02:09:12;101455.94;;;25.77;43.27
31331;BME280;34067;39.548;-76.088;2022-08-19T02:11:41;101458.16;;;25.35;44.24
31331;BME280;34067;39.548;-76.088;2022-08-19T02:14:09;101459.35;;;24.93;45.13
31331;BME280;34067;39.548;-76.088;2022-08-19T02:16:37;101461.20;;;25.27;45.37
31331;BME280;34067;39.548;-76.088;2022-08-19T02:19:05;101467.15;;;25.63;45.36
31331;BME280;34067;39.548;-76.088;2022-08-19T02:21:34;101465.73;;;25.07;44.43
31331;BME280;34067;39.548;-76.088;2022-08-19T02:24:03;101466.59;;;25.64;44.26
31331;BME280;34067;39.548;-76.088;2022-08-19T02:26:32;101466.75;;;25.42;43.97
31331;BME280;34067;39.548;-76.088;2022-08-19T02:29:00;101467.21;;;25.08;44.73
31331;BME280;34067;39.548;-76.088;2022-08-19T02:31:28;101469.46;;;25.54;44.46
31331;BME280;34067;39.548;-76.088;2022-08-19T02:33:57;101472.56;;;25.02;45.93
31331;BME280;34067;39.548;-76.088;2022-08-19T02:36:26;101473.30;;;24.85;46.32
31331;BME280;34067;39.548;-76.088;2022-08-19T02:38:54;101473.60;;;25.37;45.72
31331;BME280;34067;39.548;-76.088;2022-08-19T02:41:25;101473.68;;;24.56;46.19
31331;BME280;34067;39.548;-76.088;2022-08-19T02:43:54;101475.96;;;25.41;45.87
31331;BME280;34067;39.548;-76.088;2022-08-19T02:46:24;101474.26;;;25.74;45.94
31331;BME280;34067;39.548;-76.088;2022-08-19T02:48:57;101477.19;;;25.44;46.64
31331;BME280;34067;39.548;-76.088;2022-08-19T02:51:27;101476.53;;;24.87;46.42
31331;BME280;34067;39.548;-76.088;2022-08-19T02:53:56;101479.03;;;25.63;45.17
31331;BME280;34067;39.548;-76.088;2022-08-19T02:56:24;101478.05;;;25.54;45.51
31331;BME280;34067;39.548;-76.088;2022-08-19T02:58:52;101480.14;;;24.90;45.65
31331;BME280;34067;39.548;-76.088;2022-08-19T03:01:22;101484.20;;;25.50;45.88
31331;BME280;34067;39.548;-76.088;2022-08-19T03:03:51;101483.97;;;25.20;45.51
31331;BME280;34067;39.548;-76.088;2022-08-19T03:06:19;101485.23;;;25.07;46.33
31331;BME280;34067;39.548;-76.088;2022-08-19T03:08:48;101483.11;;;25.68;46.56
31331;BME280;34067;39.548;-76.088;2022-08-19T03:11:18;101487.20;;;25.39;46.57
31331;BME280;34067;39.548;-76.088;2022-08-19T03:13:47;101489.58;;;25.57;45.69
31331;BME280;34067;39.548;-76.088;2022-08-19T03:16:17;101492.57;;;25.55;45.07
31331;BME280;34067;39.548;-76.088;2022-08-19T03:18:45;101491.45;;;25.91;45.41
31331;BME280;34067;39.548;-76.088;2022-08-19T03:21:19;101489.61;;;25.50;45.40
31331;BME280;34067;39.548;-76.088;2022-08-19T03:23:48;101490.36;;;25.49;46.05
31331;BME280;34067;39.548;-76.088;2022-08-19T03:26:17;101489.29;;;25.58;46.57
31331;BME280;34067;39.548;-76.088;2022-08-19T03:28:46;101487.98;;;25.89;46.08
31331;BME280;34067;39.548;-76.088;2022-08-19T03:31:14;101493.11;;;25.54;48.82
31331;BME280;34067;39.548;-76.088;2022-08-19T03:33:42;101499.30;;;25.53;52.61
31331;BME280;34067;39.548;-76.088;2022-08-19T03:36:13;101503.60;;;25.56;57.62
31331;BME280;34067;39.548;-76.088;2022-08-19T03:38:44;101502.37;;;25.10;60.92
31331;BME280;34067;39.548;-76.088;2022-08-19T03:41:14;101505.66;;;24.33;62.90
31331;BME280;34067;39.548;-76.088;2022-08-19T03:43:43;101510.02;;;24.28;68.36
31331;BME280;34067;39.548;-76.088;2022-08-19T03:46:13;101513.16;;;24.46;73.56
31331;BME280;34067;39.548;-76.088;2022-08-19T03:48:42;101511.50;;;23.23;76.95
31331;BME280;34067;39.548;-76.088;2022-08-19T03:51:17;101511.52;;;22.83;79.12
31331;BME280;34067;39.548;-76.088;2022-08-19T03:53:45;101513.37;;;23.96;76.96
31331;BME280;34067;39.548;-76.088;2022-08-19T03:56:15;101508.22;;;24.75;73.43
31331;BME280;34067;39.548;-76.088;2022-08-19T03:58:43;101511.49;;;24.62;75.34
31331;BME280;34067;39.548;-76.088;2022-08-19T04:01:17;101510.67;;;23.27;75.91
31331;BME280;34067;39.548;-76.088;2022-08-19T04:03:46;101510.80;;;23.67;77.36
31331;BME280;34067;39.548;-76.088;2022-08-19T04:06:16;101515.68;;;23.23;79.40
31331;BME280;34067;39.548;-76.088;2022-08-19T04:08:47;101512.56;;;24.29;77.08
31331;BME280;34067;39.548;-76.088;2022-08-19T04:11:18;101512.66;;;24.21;77.11
31331;BME280;34067;39.548;-76.088;2022-08-19T04:13:47;101513.19;;;24.02;76.22
31331;BME280;34067;39.548;-76.088;2022-08-19T04:16:15;101512.57;;;23.30;76.56
31331;BME280;34067;39.548;-76.088;2022-08-19T04:18:44;101520.07;;;24.19;75.26
31331;BME280;34067;39.548;-76.088;2022-08-19T04:21:16;101519.22;;;24.20;74.85
31331;BME280;34067;39.548;-76.088;2022-08-19T04:23:44;101518.99;;;24.58;74.34
31331;BME280;34067;39.548;-76.088;2022-08-19T04:26:13;101519.55;;;24.44;74.45
31331;BME280;34067;39.548;-76.088;2022-08-19T04:28:41;101518.37;;;24.33;73.58
31331;BME280;34067;39.548;-76.088;2022-08-19T04:31:14;101522.07;;;24.39;73.49
31331;BME280;34067;39.548;-76.088;2022-08-19T04:33:43;101525.93;;;23.74;75.75
31331;BME280;34067;39.548;-76.088;2022-08-19T04:36:17;101528.31;;;23.62;73.17
31331;BME280;34067;39.548;-76.088;2022-08-19T04:38:45;101525.22;;;23.77;72.58
31331;BME280;34067;39.548;-76.088;2022-08-19T04:41:13;101523.87;;;23.20;72.46
31331;BME280;34067;39.548;-76.088;2022-08-19T04:43:41;101525.01;;;24.18;73.25
31331;BME280;34067;39.548;-76.088;2022-08-19T04:46:10;101526.67;;;23.15;72.94
31331;BME280;34067;39.548;-76.088;2022-08-19T04:48:39;101523.46;;;24.02;72.16
31331;BME280;34067;39.548;-76.088;2022-08-19T04:51:09;101526.07;;;23.84;71.74
31331;BME280;34067;39.548;-76.088;2022-08-19T04:53:39;101527.77;;;24.26;72.50
31331;BME280;34067;39.548;-76.088;2022-08-19T04:56:11;101526.48;;;24.09;72.01
31331;BME280;34067;39.548;-76.088;2022-08-19T04:58:42;101527.49;;;24.33;70.63
31331;BME280;34067;39.548;-76.088;2022-08-19T05:03:10;101530.96;;;24.49;69.27
31331;BME280;34067;39.548;-76.088;2022-08-19T05:05:41;101528.93;;;24.38;70.28
31331;BME280;34067;39.548;-76.088;2022-08-19T05:08:09;101531.46;;;24.55;70.35
31331;BME280;34067;39.548;-76.088;2022-08-19T05:10:38;101538.65;;;23.99;72.27
31331;BME280;34067;39.548;-76.088;2022-08-19T05:13:07;101540.41;;;23.97;71.10
31331;BME280;34067;39.548;-76.088;2022-08-19T05:15:35;101543.00;;;24.59;70.30
31331;BME280;34067;39.548;-76.088;2022-08-19T05:18:03;101541.40;;;24.46;69.56
31331;BME280;34067;39.548;-76.088;2022-08-19T05:20:31;101541.29;;;23.75;70.14
31331;BME280;34067;39.548;-76.088;2022-08-19T05:22:59;101542.66;;;24.10;68.80
31331;BME280;34067;39.548;-76.088;2022-08-19T05:25:27;101543.24;;;24.05;67.36
31331;BME280;34067;39.548;-76.088;2022-08-19T05:27:55;101543.68;;;23.03;70.61
31331;BME280;34067;39.548;-76.088;2022-08-19T05:30:23;101540.01;;;23.47;68.58
31331;BME280;34067;39.548;-76.088;2022-08-19T05:32:51;101540.80;;;23.60;67.69
31331;BME280;34067;39.548;-76.088;2022-08-19T05:35:19;101542.17;;;24.23;68.94
31331;BME280;34067;39.548;-76.088;2022-08-19T05:37:46;101543.72;;;24.31;68.86
31331;BME280;34067;39.548;-76.088;2022-08-19T05:40:14;101546.84;;;23.85;69.78
31331;BME280;34067;39.548;-76.088;2022-08-19T05:42:42;101551.17;;;23.51;68.98
31331;BME280;34067;39.548;-76.088;2022-08-19T05:45:10;101551.47;;;23.93;69.16
31331;BME280;34067;39.548;-76.088;2022-08-19T05:47:38;101551.58;;;24.14;70.69
31331;BME280;34067;39.548;-76.088;2022-08-19T05:50:06;101553.98;;;23.91;69.15
31331;BME280;34067;39.548;-76.088;2022-08-19T05:52:37;101554.87;;;23.20;71.23
31331;BME280;34067;39.548;-76.088;2022-08-19T05:55:06;101553.46;;;23.32;69.56
31331;BME280;34067;39.548;-76.088;2022-08-19T05:57:34;101552.23;;;23.47;68.56
31331;BME280;34067;39.548;-76.088;2022-08-19T06:00:03;101554.47;;;23.51;68.39
31331;BME280;34067;39.548;-76.088;2022-08-19T06:02:31;101558.45;;;23.24;69.66
31331;BME280;34067;39.548;-76.088;2022-08-19T06:04:59;101557.22;;;23.08;68.90
31331;BME280;34067;39.548;-76.088;2022-08-19T06:07:27;101559.42;;;22.46;71.82
31331;BME280;34067;39.548;-76.088;2022-08-19T06:09:55;101560.72;;;22.91;70.54
31331;BME280;34067;39.548;-76.088;2022-08-19T06:12:23;101563.47;;;22.95;71.46
31331;BME280;34067;39.548;-76.088;2022-08-19T06:14:52;101560.07;;;23.59;71.39
31331;BME280;34067;39.548;-76.088;2022-08-19T06:17:20;101562.77;;;23.58;72.22
31331;BME280;34067;39.548;-76.088;2022-08-19T06:19:48;101559.78;;;22.67;72.54
31331;BME280;34067;39.548;-76.088;2022-08-19T06:22:16;101558.97;;;22.94;73.20
31331;BME280;34067;39.548;-76.088;2022-08-19T06:24:43;101555.08;;;22.95;72.63
31331;BME280;34067;39.548;-76.088;2022-08-19T06:27:12;101557.34;;;22.96;72.97
31331;BME280;34067;39.548;-76.088;2022-08-19T06:29:40;101554.39;;;23.19;72.89
31331;BME280;34067;39.548;-76.088;2022-08-19T06:32:08;101556.21;;;22.34;75.50
31331;BME280;34067;39.548;-76.088;2022-08-19T06:34:37;101554.22;;;22.61;75.25
31331;BME280;34067;39.548;-76.088;2022-08-19T06:37:04;101556.72;;;22.42;75.69
31331;BME280;34067;39.548;-76.088;2022-08-19T06:39:35;101556.48;;;22.95;74.32
31331;BME280;34067;39.548;-76.088;2022-08-19T06:42:04;101561.24;;;22.44;74.69
31331;BME280;34067;39.548;-76.088;2022-08-19T06:44:34;101562.57;;;21.90;77.77
31331;BME280;34067;39.548;-76.088;2022-08-19T06:47:04;101564.89;;;22.12;80.41
31331;BME280;34067;39.548;-76.088;2022-08-19T06:49:32;101567.17;;;20.16;92.12
31331;BME280;34067;39.548;-76.088;2022-08-19T06:52:01;101568.04;;;19.12;100.00
31331;BME280;34067;39.548;-76.088;2022-08-19T06:54:29;101575.75;;;19.29;100.00
31331;BME280;34067;39.548;-76.088;2022-08-19T06:56:58;101571.99;;;20.94;100.00
31331;BME280;34067;39.548;-76.088;2022-08-19T06:59:27;101576.54;;;20.71;98.09
31331;BME280;34067;39.548;-76.088;2022-08-19T07:01:57;101579.98;;;21.44;89.20
31331;BME280;34067;39.548;-76.088;2022-08-19T07:04:27;101578.18;;;22.32;85.15
31331;BME280;34067;39.548;-76.088;2022-08-19T07:07:00;101581.26;;;22.58;81.94
31331;BME280;34067;39.548;-76.088;2022-08-19T07:09:28;101583.81;;;22.59;81.11
31331;BME280;34067;39.548;-76.088;2022-08-19T07:11:56;101586.40;;;22.58;80.23
31331;BME280;34067;39.548;-76.088;2022-08-19T07:14:26;101582.79;;;23.18;77.73
31331;BME280;34067;39.548;-76.088;2022-08-19T07:16:56;101582.59;;;22.84;79.70
31331;BME280;34067;39.548;-76.088;2022-08-19T07:19:25;101585.39;;;22.89;78.45
31331;BME280;34067;39.548;-76.088;2022-08-19T07:21:54;101591.54;;;22.46;78.10
31331;BME280;34067;39.548;-76.088;2022-08-19T07:24:25;101592.50;;;23.03;77.05
31331;BME280;34067;39.548;-76.088;2022-08-19T07:26:54;101591.12;;;23.06;77.24
31331;BME280;34067;39.548;-76.088;2022-08-19T07:29:23;101596.40;;;22.70;76.69
31331;BME280;34067;39.548;-76.088;2022-08-19T07:31:52;101598.56;;;22.62;77.89
31331;BME280;34067;39.548;-76.088;2022-08-19T07:34:21;101600.26;;;22.45;75.83
31331;BME280;34067;39.548;-76.088;2022-08-19T07:36:50;101605.66;;;21.99;76.85
31331;BME280;34067;39.548;-76.088;2022-08-19T07:39:21;101604.98;;;21.67;76.77
31331;BME280;34067;39.548;-76.088;2022-08-19T07:41:49;101604.42;;;20.73;78.06
31331;BME280;34067;39.548;-76.088;2022-08-19T07:44:19;101603.66;;;20.96;78.39
31331;BME280;34067;39.548;-76.088;2022-08-19T07:46:50;101606.53;;;21.46;78.77
31331;BME280;34067;39.548;-76.088;2022-08-19T07:49:20;101605.14;;;21.25;80.88
31331;BME280;34067;39.548;-76.088;2022-08-19T07:51:50;101605.71;;;21.43;79.66
31331;BME280;34067;39.548;-76.088;2022-08-19T07:54:21;101603.10;;;21.61;78.64
31331;BME280;34067;39.548;-76.088;2022-08-19T07:56:49;101603.01;;;21.65;78.21
31331;BME280;34067;39.548;-76.088;2022-08-19T07:59:18;101600.37;;;21.73;76.91
31331;BME280;34067;39.548;-76.088;2022-08-19T08:01:47;101599.91;;;21.27;76.83
31331;BME280;34067;39.548;-76.088;2022-08-19T08:04:15;101599.47;;;21.54;75.16
31331;BME280;34067;39.548;-76.088;2022-08-19T08:06:43;101600.63;;;21.29;74.81
31331;BME280;34067;39.548;-76.088;2022-08-19T08:09:13;101598.06;;;20.65;75.67
31331;BME280;34067;39.548;-76.088;2022-08-19T08:11:44;101596.33;;;21.09;71.61
31331;BME280;34067;39.548;-76.088;2022-08-19T08:14:12;101598.86;;;21.96;68.88
31331;BME280;34067;39.548;-76.088;2022-08-19T08:16:40;101600.70;;;21.62;66.97
31331;BME280;34067;39.548;-76.088;2022-08-19T08:19:08;101600.71;;;21.48;65.92
31331;BME280;34067;39.548;-76.088;2022-08-19T08:21:36;101599.97;;;21.38;66.31
31331;BME280;34067;39.548;-76.088;2022-08-19T08:24:04;101598.16;;;21.41;66.07
31331;BME280;34067;39.548;-76.088;2022-08-19T08:26:32;101599.04;;;22.28;65.66
31331;BME280;34067;39.548;-76.088;2022-08-19T08:29:00;101597.63;;;21.73;62.60
31331;BME280;34067;39.548;-76.088;2022-08-19T08:31:28;101600.63;;;21.83;66.30
31331;BME280;34067;39.548;-76.088;2022-08-19T08:33:56;101598.41;;;21.63;69.90
31331;BME280;34067;39.548;-76.088;2022-08-19T08:36:24;101601.03;;;21.17;75.01
31331;BME280;34067;39.548;-76.088;2022-08-19T08:38:52;101602.89;;;21.10;76.98
31331;BME280;34067;39.548;-76.088;2022-08-19T08:41:26;101600.56;;;21.81;76.17
31331;BME280;34067;39.548;-76.088;2022-08-19T08:43:56;101601.73;;;21.56;77.93
31331;BME280;34067;39.548;-76.088;2022-08-19T08:46:29;101599.67;;;21.92;76.39
31331;BME280;34067;39.548;-76.088;2022-08-19T08:49:04;101604.14;;;21.62;78.30
31331;BME280;34067;39.548;-76.088;2022-08-19T08:51:42;101602.89;;;21.42;78.87
31331;BME280;34067;39.548;-76.088;2022-08-19T08:54:14;101604.86;;;21.25;79.57
31331;BME280;34067;39.548;-76.088;2022-08-19T08:56:44;101606.92;;;20.68;81.30
31331;BME280;34067;39.548;-76.088;2022-08-19T08:59:20;101604.35;;;21.68;78.96
31331;BME280;34067;39.548;-76.088;2022-08-19T09:01:49;101607.38;;;21.25;78.68
31331;BME280;34067;39.548;-76.088;2022-08-19T09:04:17;101607.04;;;21.93;77.34
31331;BME280;34067;39.548;-76.088;2022-08-19T09:06:53;101608.86;;;21.39;76.10
31331;BME280;34067;39.548;-76.088;2022-08-19T09:09:27;101610.02;;;22.03;74.67
31331;BME280;34067;39.548;-76.088;2022-08-19T09:12:03;101615.84;;;22.34;75.77
31331;BME280;34067;39.548;-76.088;2022-08-19T09:14:41;101619.01;;;21.86;74.90
31331;BME280;34067;39.548;-76.088;2022-08-19T09:17:12;101621.04;;;21.75;75.20
31331;BME280;34067;39.548;-76.088;2022-08-19T09:19:50;101623.54;;;22.12;76.90
31331;BME280;34067;39.548;-76.088;2022-08-19T09:22:19;101627.60;;;21.52;76.73
31331;BME280;34067;39.548;-76.088;2022-08-19T09:24:47;101625.65;;;21.72;76.12
31331;BME280;34067;39.548;-76.088;2022-08-19T09:27:14;101626.65;;;21.44;78.33
31331;BME280;34067;39.548;-76.088;2022-08-19T09:29:42;101629.83;;;21.88;76.71
31331;BME280;34067;39.548;-76.088;2022-08-19T09:32:10;101632.87;;;21.94;77.26
31331;BME280;34067;39.548;-76.088;2022-08-19T09:34:39;101632.43;;;21.99;76.24
31331;BME280;34067;39.548;-76.088;2022-08-19T09:37:06;101631.16;;;21.15;76.99
31331;BME280;34067;39.548;-76.088;2022-08-19T09:39:34;101635.10;;;21.58;76.55
31331;BME280;34067;39.548;-76.088;2022-08-19T09:42:02;101638.81;;;20.95;76.93
31331;BME280;34067;39.548;-76.088;2022-08-19T09:44:30;101637.75;;;21.13;76.70
31331;BME280;34067;39.548;-76.088;2022-08-19T09:46:58;101639.88;;;21.42;75.35
31331;BME280;34067;39.548;-76.088;2022-08-19T09:49:26;101643.21;;;21.60;75.57
31331;BME280;34067;39.548;-76.088;2022-08-19T09:51:53;101641.78;;;21.21;75.66
31331;BME280;34067;39.548;-76.088;2022-08-19T09:54:22;101643.40;;;21.07;76.08
31331;BME280;34067;39.548;-76.088;2022-08-19T09:56:50;101641.27;;;21.11;77.09
31331;BME280;34067;39.548;-76.088;2022-08-19T09:59:17;101647.16;;;21.08;78.42
31331;BME280;34067;39.548;-76.088;2022-08-19T10:01:45;101649.89;;;21.74;75.76
31331;BME280;34067;39.548;-76.088;2022-08-19T10:04:14;101651.47;;;20.83;76.15
31331;BME280;34067;39.548;-76.088;2022-08-19T10:06:41;101651.01;;;20.88;80.33
31331;BME280;34067;39.548;-76.088;2022-08-19T10:09:10;101653.85;;;21.43;78.56
31331;BME280;34067;39.548;-76.088;2022-08-19T10:11:41;101651.27;;;20.90;79.07
31331;BME280;34067;39.548;-76.088;2022-08-19T10:14:08;101652.33;;;22.21;78.51
31331;BME280;34067;39.548;-76.088;2022-08-19T10:16:37;101652.87;;;21.63;77.30
31331;BME280;34067;39.548;-76.088;2022-08-19T10:19:04;101653.60;;;21.23;78.32
31331;BME280;34067;39.548;-76.088;2022-08-19T10:21:33;101660.94;;;21.04;79.82
31331;BME280;34067;39.548;-76.088;2022-08-19T10:24:05;101664.77;;;21.80;79.37
31331;BME280;34067;39.548;-76.088;2022-08-19T10:26:34;101667.12;;;20.84;78.84
31331;BME280;34067;39.548;-76.088;2022-08-19T10:29:04;101671.31;;;21.28;79.24
31331;BME280;34067;39.548;-76.088;2022-08-19T10:31:34;101675.06;;;20.69;82.33
31331;BME280;34067;39.548;-76.088;2022-08-19T10:34:01;101677.92;;;20.42;84.03
31331;BME280;34067;39.548;-76.088;2022-08-19T10:36:31;101680.57;;;20.82;83.47
31331;BME280;34067;39.548;-76.088;2022-08-19T10:39:02;101680.15;;;21.80;82.17
31331;BME280;34067;39.548;-76.088;2022-08-19T10:41:32;101681.06;;;21.55;81.56
31331;BME280;34067;39.548;-76.088;2022-08-19T10:44:03;101681.68;;;21.21;82.72
31331;BME280;34067;39.548;-76.088;2022-08-19T10:46:35;101686.24;;;21.38;81.50
31331;BME280;34067;39.548;-76.088;2022-08-19T10:49:04;101685.02;;;22.30;80.20
31331;BME280;34067;39.548;-76.088;2022-08-19T10:51:33;101687.43;;;21.91;79.72
31331;BME280;34067;39.548;-76.088;2022-08-19T10:54:02;101691.50;;;20.79;81.67
31331;BME280;34067;39.548;-76.088;2022-08-19T10:56:30;101696.41;;;21.38;83.20
31331;BME280;34067;39.548;-76.088;2022-08-19T10:58:59;101700.31;;;21.84;81.45
31331;BME280;34067;39.548;-76.088;2022-08-19T11:01:28;101704.90;;;21.26;82.16
31331;BME280;34067;39.548;-76.088;2022-08-19T11:03:57;101708.21;;;21.92;80.53
31331;BME280;34067;39.548;-76.088;2022-08-19T11:06:24;101711.81;;;21.57;80.61
31331;BME280;34067;39.548;-76.088;2022-08-19T11:08:53;101712.09;;;21.95;78.73
31331;BME280;34067;39.548;-76.088;2022-08-19T11:11:23;101718.46;;;21.72;78.94
31331;BME280;34067;39.548;-76.088;2022-08-19T11:13:50;101722.42;;;23.23;76.42
31331;BME280;34067;39.548;-76.088;2022-08-19T11:16:21;101725.51;;;22.01;77.16
31331;BME280;34067;39.548;-76.088;2022-08-19T11:18:50;101725.17;;;22.44;75.15
31331;BME280;34067;39.548;-76.088;2022-08-19T11:21:21;101730.33;;;21.81;75.78
31331;BME280;34067;39.548;-76.088;2022-08-19T11:23:52;101733.24;;;22.56;73.78
31331;BME280;34067;39.548;-76.088;2022-08-19T11:26:22;101731.76;;;22.27;72.45
31331;BME280;34067;39.548;-76.088;2022-08-19T11:28:50;101739.47;;;23.13;72.89
31331;BME280;34067;39.548;-76.088;2022-08-19T11:31:24;101738.98;;;22.65;72.50
31331;BME280;34067;39.548;-76.088;2022-08-19T11:33:52;101740.12;;;22.29;74.68
31331;BME280;34067;39.548;-76.088;2022-08-19T11:36:21;101738.21;;;22.57;75.28
31331;BME280;34067;39.548;-76.088;2022-08-19T11:38:50;101742.29;;;22.01;82.28
31331;BME280;34067;39.548;-76.088;2022-08-19T11:41:20;101742.24;;;22.61;76.77
31331;BME280;34067;39.548;-76.088;2022-08-19T11:43:49;101742.59;;;22.31;83.99
31331;BME280;34067;39.548;-76.088;2022-08-19T11:46:17;101745.27;;;22.74;77.47
31331;BME280;34067;39.548;-76.088;2022-08-19T11:48:45;101740.09;;;22.50;79.37
31331;BME280;34067;39.548;-76.088;2022-08-19T11:51:17;101745.31;;;22.14;81.50
31331;BME280;34067;39.548;-76.088;2022-08-19T11:53:46;101749.26;;;22.87;79.38
31331;BME280;34067;39.548;-76.088;2022-08-19T11:56:14;101749.66;;;21.88;84.94
31331;BME280;34067;39.548;-76.088;2022-08-19T11:58:42;101753.05;;;21.11;87.88
31331;BME280;34067;39.548;-76.088;2022-08-19T12:01:11;101755.91;;;20.62;91.58
31331;BME280;34067;39.548;-76.088;2022-08-19T12:03:38;101755.76;;;22.41;89.39
31331;BME280;34067;39.548;-76.088;2022-08-19T12:06:08;101763.03;;;20.54;97.81
31331;BME280;34067;39.548;-76.088;2022-08-19T12:08:37;101763.74;;;21.85;96.98
31331;BME280;34067;39.548;-76.088;2022-08-19T12:11:05;101763.06;;;22.04;93.12
31331;BME280;34067;39.548;-76.088;2022-08-19T12:13:33;101769.69;;;21.58;95.12
31331;BME280;34067;39.548;-76.088;2022-08-19T12:16:07;101776.91;;;22.01;97.82
31331;BME280;34067;39.548;-76.088;2022-08-19T12:18:35;101778.09;;;22.17;94.95
31331;BME280;34067;39.548;-76.088;2022-08-19T12:21:03;101773.30;;;22.24;90.28
31331;BME280;34067;39.548;-76.088;2022-08-19T12:23:31;101775.41;;;22.72;87.18
31331;BME280;34067;39.548;-76.088;2022-08-19T12:25:59;101775.11;;;23.04;85.77
31331;BME280;34067;39.548;-76.088;2022-08-19T12:28:26;101769.62;;;21.80;88.80
31331;BME280;34067;39.548;-76.088;2022-08-19T12:30:56;101768.84;;;21.73;93.51
31331;BME280;34067;39.548;-76.088;2022-08-19T12:33:24;101768.68;;;22.33;88.09
31331;BME280;34067;39.548;-76.088;2022-08-19T12:35:52;101765.14;;;23.42;82.23
31331;BME280;34067;39.548;-76.088;2022-08-19T12:38:21;101767.38;;;23.21;80.17
31331;BME280;34067;39.548;-76.088;2022-08-19T12:40:49;101764.12;;;23.25;79.91